sensor_id;sensor_type;location;lat;lon;timestamp;P1;durP1;ratioP1;P2;durP2;ratioP2
22308;SDS011;11322;50.858;-1.778;2023-04-07T00:00:36;1.55;;;1.3;;
22308;SDS011;11322;50.858;-1.778;2023-04-07T00:05:34;1.5;;;1.1;;
22308;SDS011;11322;50.858;-1.778;2023-04-07T00:10:34;1.85;;;1.4;;
22308;SDS011;11322;50.858;-1.778;2023-04-07T00:15:34;2.1;;;1.7;;
22308;SDS011;11322;50.858;-1.778;2023-04-07T00:20:34;1.3;;;1.2;;
22308;SDS011;11322;50.858;-1.778;2023-04-07T00:25:34;3.3;;;0.95;;
22308;SDS011;11322;50.858;-1.778;2023-04-07T00:30:34;2.45;;;1.65;;
22308;SDS011;11322;50.858;-1.778;2023-04-07T00:35:34;1.7;;;1.6;;
22308;SDS011;11322;50.858;-1.778;2023-04-07T00:40:34;1.9;;;1.05;;
22308;SDS011;11322;50.858;-1.778;2023-04-07T00:45:45;1.95;;;1.5;;
22308;SDS011;11322;50.858;-1.778;2023-04-07T00:50:34;5.55;;;1.45;;
22308;SDS011;11322;50.858;-1.778;2023-04-07T00:55:34;2.15;;;1.35;;
22308;SDS011;11322;50.858;-1.778;2023-04-07T01:00:34;2.1;;;1.5;;
22308;SDS011;11322;50.858;-1.778;2023-04-07T01:05:35;3.4;;;1.9;;
22308;SDS011;11322;50.858;-1.778;2023-04-07T01:10:36;1.15;;;1.05;;
22308;SDS011;11322;50.858;-1.778;2023-04-07T01:15:34;2.0;;;1.2;;
22308;SDS011;11322;50.858;-1.778;2023-04-07T01:20:34;1.4;;;1.3;;
22308;SDS011;11322;50.858;-1.778;2023-04-07T01:25:40;1.6;;;1.2;;
22308;SDS011;11322;50.858;-1.778;2023-04-07T01:30:35;0.4;;;0.4;;
22308;SDS011;11322;50.858;-1.778;2023-04-07T01:35:34;1.05;;;1.0;;
22308;SDS011;11322;50.858;-1.778;2023-04-07T01:40:34;1.55;;;1.1;;
22308;SDS011;11322;50.858;-1.778;2023-04-07T01:45:34;6.25;;;1.5;;
22308;SDS011;11322;50.858;-1.778;2023-04-07T01:50:34;1.1;;;1.0;;
22308;SDS011;11322;50.858;-1.778;2023-04-07T01:55:34;2.05;;;1.35;;
22308;SDS011;11322;50.858;-1.778;2023-04-07T02:00:34;2.25;;;1.75;;
22308;SDS011;11322;50.858;-1.778;2023-04-07T02:05:34;3.5;;;0.7;;
22308;SDS011;11322;50.858;-1.778;2023-04-07T02:10:34;1.15;;;0.7;;
22308;SDS011;11322;50.858;-1.778;2023-04-07T02:15:34;0.8;;;0.8;;
22308;SDS011;11322;50.858;-1.778;2023-04-07T02:20:34;1.2;;;1.1;;
22308;SDS011;11322;50.858;-1.778;2023-04-07T02:25:34;0.65;;;0.65;;
22308;SDS011;11322;50.858;-1.778;2023-04-07T02:30:34;0.2;;;0.2;;
22308;SDS011;11322;50.858;-1.778;2023-04-07T02:35:34;0.3;;;0.3;;
22308;SDS011;11322;50.858;-1.778;2023-04-07T02:40:34;0.5;;;0.5;;
22308;SDS011;11322;50.858;-1.778;2023-04-07T02:45:34;0.6;;;0.4;;
22308;SDS011;11322;50.858;-1.778;2023-04-07T02:50:34;1.8;;;0.9;;
22308;SDS011;11322;50.858;-1.778;2023-04-07T02:55:34;2.45;;;0.45;;
22308;SDS011;11322;50.858;-1.778;2023-04-07T03:00:34;3.1;;;0.8;;
22308;SDS011;11322;50.858;-1.778;2023-04-07T03:05:34;0.9;;;0.9;;
22308;SDS011;11322;50.858;-1.778;2023-04-07T03:10:34;0.6;;;0.6;;
22308;SDS011;11322;50.858;-1.778;2023-04-07T03:15:34;2.45;;;0.4;;
22308;SDS011;11322;50.858;-1.778;2023-04-07T03:20:34;4.95;;;1.15;;
22308;SDS011;11322;50.858;-1.778;2023-04-07T03:25:34;0.9;;;0.45;;
22308;SDS011;11322;50.858;-1.778;2023-04-07T03:30:34;1.25;;;1.05;;
22308;SDS011;11322;50.858;-1.778;2023-04-07T03:35:34;0.7;;;0.55;;
22308;SDS011;11322;50.858;-1.778;2023-04-07T03:40:34;0.8;;;0.8;;
22308;SDS011;11322;50.858;-1.778;2023-04-07T03:45:34;0.4;;;0.4;;
22308;SDS011;11322;50.858;-1.778;2023-04-07T03:50:34;4.65;;;1.05;;
22308;SDS011;11322;50.858;-1.778;2023-04-07T03:55:34;0.35;;;0.35;;
22308;SDS011;11322;50.858;-1.778;2023-04-07T04:00:34;2.85;;;1.2;;
22308;SDS011;11322;50.858;-1.778;2023-04-07T04:05:34;1.15;;;0.8;;
22308;SDS011;11322;50.858;-1.778;2023-04-07T04:10:34;0.75;;;0.75;;
22308;SDS011;11322;50.858;-1.778;2023-04-07T04:15:34;2.2;;;1.1;;
22308;SDS011;11322;50.858;-1.778;2023-04-07T04:20:34;0.9;;;0.9;;
22308;SDS011;11322;50.858;-1.778;2023-04-07T04:25:34;0.8;;;0.8;;
22308;SDS011;11322;50.858;-1.778;2023-04-07T04:30:34;0.3;;;0.25;;
22308;SDS011;11322;50.858;-1.778;2023-04-07T04:35:34;0.5;;;0.45;;
22308;SDS011;11322;50.858;-1.778;2023-04-07T04:40:34;1.2;;;0.85;;
22308;SDS011;11322;50.858;-1.778;2023-04-07T04:45:34;3.1;;;0.7;;
22308;SDS011;11322;50.858;-1.778;2023-04-07T04:50:34;0.25;;;0.25;;
22308;SDS011;11322;50.858;-1.778;2023-04-07T04:55:34;1.6;;;0.4;;
22308;SDS011;11322;50.858;-1.778;2023-04-07T05:00:34;0.65;;;0.65;;
22308;SDS011;11322;50.858;-1.778;2023-04-07T05:05:34;1.5;;;0.6;;
22308;SDS011;11322;50.858;-1.778;2023-04-07T05:10:40;2.05;;;1.25;;
22308;SDS011;11322;50.858;-1.778;2023-04-07T05:15:34;3.95;;;0.7;;
22308;SDS011;11322;50.858;-1.778;2023-04-07T05:20:34;0.8;;;0.8;;
22308;SDS011;11322;50.858;-1.778;2023-04-07T05:25:34;0.95;;;0.8;;
22308;SDS011;11322;50.858;-1.778;2023-04-07T05:30:34;3.85;;;1.2;;
22308;SDS011;11322;50.858;-1.778;2023-04-07T05:35:34;0.7;;;0.7;;
22308;SDS011;11322;50.858;-1.778;2023-04-07T05:40:38;2.1;;;1.45;;
22308;SDS011;11322;50.858;-1.778;2023-04-07T05:45:34;6.05;;;1.95;;
22308;SDS011;11322;50.858;-1.778;2023-04-07T05:50:34;6.5;;;1.6;;
22308;SDS011;11322;50.858;-1.778;2023-04-07T05:55:34;1.4;;;1.3;;
22308;SDS011;11322;50.858;-1.778;2023-04-07T06:00:34;0.7;;;0.7;;
22308;SDS011;11322;50.858;-1.778;2023-04-07T06:05:34;2.65;;;1.35;;
22308;SDS011;11322;50.858;-1.778;2023-04-07T06:10:34;0.4;;;0.4;;
22308;SDS011;11322;50.858;-1.778;2023-04-07T06:15:34;1.5;;;0.95;;
22308;SDS011;11322;50.858;-1.778;2023-04-07T06:20:34;0.65;;;0.65;;
22308;SDS011;11322;50.858;-1.778;2023-04-07T06:25:34;2.1;;;0.8;;
22308;SDS011;11322;50.858;-1.778;2023-04-07T06:30:34;3.95;;;0.85;;
22308;SDS011;11322;50.858;-1.778;2023-04-07T06:35:34;1.15;;;1.15;;
22308;SDS011;11322;50.858;-1.778;2023-04-07T06:40:34;0.85;;;0.85;;
22308;SDS011;11322;50.858;-1.778;2023-04-07T06:45:34;1.1;;;0.8;;
22308;SDS011;11322;50.858;-1.778;2023-04-07T06:50:34;0.65;;;0.4;;
22308;SDS011;11322;50.858;-1.778;2023-04-07T06:55:34;0.5;;;0.5;;
22308;SDS011;11322;50.858;-1.778;2023-04-07T07:00:34;2.45;;;1.35;;
22308;SDS011;11322;50.858;-1.778;2023-04-07T07:05:34;3.3;;;0.9;;
22308;SDS011;11322;50.858;-1.778;2023-04-07T07:10:34;1.9;;;0.7;;
22308;SDS011;11322;50.858;-1.778;2023-04-07T07:15:34;1.5;;;1.1;;
22308;SDS011;11322;50.858;-1.778;2023-04-07T07:20:34;2.45;;;0.8;;
22308;SDS011;11322;50.858;-1.778;2023-04-07T07:25:34;0.85;;;0.8;;
22308;SDS011;11322;50.858;-1.778;2023-04-07T07:30:34;0.7;;;0.7;;
22308;SDS011;11322;50.858;-1.778;2023-04-07T07:35:34;1.95;;;1.2;;
22308;SDS011;11322;50.858;-1.778;2023-04-07T07:40:34;1.7;;;1.15;;
22308;SDS011;11322;50.858;-1.778;2023-04-07T07:45:34;0.85;;;0.85;;
22308;SDS011;11322;50.858;-1.778;2023-04-07T07:50:34;7.6;;;1.65;;
22308;SDS011;11322;50.858;-1.778;2023-04-07T07:55:34;0.95;;;0.7;;
22308;SDS011;11322;50.858;-1.778;2023-04-07T08:00:34;13.1;;;1.4;;
22308;SDS011;11322;50.858;-1.778;2023-04-07T08:05:34;4.2;;;1.3;;
22308;SDS011;11322;50.858;-1.778;2023-04-07T08:10:34;6.0;;;2.0;;
22308;SDS011;11322;50.858;-1.778;2023-04-07T08:15:34;11.95;;;1.45;;
22308;SDS011;11322;50.858;-1.778;2023-04-07T08:20:34;3.25;;;0.95;;
22308;SDS011;11322;50.858;-1.778;2023-04-07T08:25:34;5.8;;;1.5;;
22308;SDS011;11322;50.858;-1.778;2023-04-07T08:30:34;9.4;;;1.25;;
22308;SDS011;11322;50.858;-1.778;2023-04-07T08:35:34;9.6;;;1.8;;
22308;SDS011;11322;50.858;-1.778;2023-04-07T08:40:34;2.4;;;0.8;;
22308;SDS011;11322;50.858;-1.778;2023-04-07T08:45:35;4.35;;;1.75;;
22308;SDS011;11322;50.858;-1.778;2023-04-07T08:50:34;5.8;;;1.1;;
22308;SDS011;11322;50.858;-1.778;2023-04-07T08:55:34;1.1;;;0.75;;
22308;SDS011;11322;50.858;-1.778;2023-04-07T09:00:34;8.65;;;1.85;;
22308;SDS011;11322;50.858;-1.778;2023-04-07T09:05:34;3.45;;;1.0;;
22308;SDS011;11322;50.858;-1.778;2023-04-07T09:10:35;1.9;;;1.5;;
22308;SDS011;11322;50.858;-1.778;2023-04-07T09:15:34;3.55;;;1.2;;
22308;SDS011;11322;50.858;-1.778;2023-04-07T09:20:54;13.45;;;1.5;;
22308;SDS011;11322;50.858;-1.778;2023-04-07T09:25:34;5.95;;;0.7;;
22308;SDS011;11322;50.858;-1.778;2023-04-07T09:30:34;0.95;;;0.7;;
22308;SDS011;11322;50.858;-1.778;2023-04-07T09:35:37;3.95;;;1.2;;
22308;SDS011;11322;50.858;-1.778;2023-04-07T09:35:50;3.95;;;1.2;;
22308;SDS011;11322;50.858;-1.778;2023-04-07T09:40:39;2.25;;;1.4;;
22308;SDS011;11322;50.858;-1.778;2023-04-07T09:45:34;2.6;;;1.3;;
22308;SDS011;11322;50.858;-1.778;2023-04-07T09:50:34;0.8;;;0.7;;
22308;SDS011;11322;50.858;-1.778;2023-04-07T09:55:34;6.8;;;1.85;;
22308;SDS011;11322;50.858;-1.778;2023-04-07T10:00:34;8.6;;;0.8;;
22308;SDS011;11322;50.858;-1.778;2023-04-07T10:05:34;1.1;;;1.1;;
22308;SDS011;11322;50.858;-1.778;2023-04-07T10:10:34;11.45;;;1.4;;
22308;SDS011;11322;50.858;-1.778;2023-04-07T10:15:34;1.65;;;1.05;;
22308;SDS011;11322;50.858;-1.778;2023-04-07T10:20:34;3.65;;;1.0;;
22308;SDS011;11322;50.858;-1.778;2023-04-07T10:25:34;13.5;;;1.9;;
22308;SDS011;11322;50.858;-1.778;2023-04-07T10:30:34;4.55;;;1.3;;
22308;SDS011;11322;50.858;-1.778;2023-04-07T10:36:02;5.55;;;1.15;;
22308;SDS011;11322;50.858;-1.778;2023-04-07T10:40:34;5.3;;;1.95;;
22308;SDS011;11322;50.858;-1.778;2023-04-07T10:45:53;2.55;;;0.9;;
22308;SDS011;11322;50.858;-1.778;2023-04-07T10:50:34;2.8;;;1.15;;
22308;SDS011;11322;50.858;-1.778;2023-04-07T10:55:35;1.95;;;1.15;;
22308;SDS011;11322;50.858;-1.778;2023-04-07T11:00:34;0.8;;;0.65;;
22308;SDS011;11322;50.858;-1.778;2023-04-07T11:05:34;3.25;;;1.25;;
22308;SDS011;11322;50.858;-1.778;2023-04-07T11:10:34;2.65;;;0.9;;
22308;SDS011;11322;50.858;-1.778;2023-04-07T11:15:34;7.05;;;1.25;;
22308;SDS011;11322;50.858;-1.778;2023-04-07T11:20:43;3.75;;;1.55;;
22308;SDS011;11322;50.858;-1.778;2023-04-07T11:25:34;4.15;;;1.25;;
22308;SDS011;11322;50.858;-1.778;2023-04-07T11:30:34;0.3;;;0.3;;
22308;SDS011;11322;50.858;-1.778;2023-04-07T11:35:34;3.55;;;0.8;;
22308;SDS011;11322;50.858;-1.778;2023-04-07T11:40:34;3.85;;;0.4;;
22308;SDS011;11322;50.858;-1.778;2023-04-07T11:45:34;1.35;;;0.5;;
22308;SDS011;11322;50.858;-1.778;2023-04-07T11:50:38;0.1;;;0.1;;
22308;SDS011;11322;50.858;-1.778;2023-04-07T11:55:34;0.2;;;0.2;;
22308;SDS011;11322;50.858;-1.778;2023-04-07T12:00:34;1.7;;;0.7;;
22308;SDS011;11322;50.858;-1.778;2023-04-07T12:05:40;2.65;;;0.7;;
22308;SDS011;11322;50.858;-1.778;2023-04-07T12:11:51;2.4;;;0.4;;
22308;SDS011;11322;50.858;-1.778;2023-04-07T12:15:34;0.5;;;0.3;;
22308;SDS011;11322;50.858;-1.778;2023-04-07T12:20:34;0.5;;;0.5;;
22308;SDS011;11322;50.858;-1.778;2023-04-07T12:25:34;1.05;;;0.65;;
22308;SDS011;11322;50.858;-1.778;2023-04-07T12:30:34;1.0;;;0.45;;
22308;SDS011;11322;50.858;-1.778;2023-04-07T12:35:34;1.8;;;0.7;;
22308;SDS011;11322;50.858;-1.778;2023-04-07T12:40:34;0.75;;;0.35;;
22308;SDS011;11322;50.858;-1.778;2023-04-07T12:45:34;1.05;;;0.75;;
22308;SDS011;11322;50.858;-1.778;2023-04-07T12:50:34;0.4;;;0.4;;
22308;SDS011;11322;50.858;-1.778;2023-04-07T12:55:34;0.7;;;0.4;;
22308;SDS011;11322;50.858;-1.778;2023-04-07T13:00:34;2.1;;;0.6;;
22308;SDS011;11322;50.858;-1.778;2023-04-07T13:05:34;2.2;;;0.6;;
22308;SDS011;11322;50.858;-1.778;2023-04-07T13:10:34;2.05;;;0.6;;
22308;SDS011;11322;50.858;-1.778;2023-04-07T13:15:34;0.8;;;0.4;;
22308;SDS011;11322;50.858;-1.778;2023-04-07T13:20:34;1.8;;;0.65;;
22308;SDS011;11322;50.858;-1.778;2023-04-07T13:25:34;0.3;;;0.3;;
22308;SDS011;11322;50.858;-1.778;2023-04-07T13:30:34;0.6;;;0.6;;
22308;SDS011;11322;50.858;-1.778;2023-04-07T13:35:34;4.4;;;0.6;;
22308;SDS011;11322;50.858;-1.778;2023-04-07T13:40:34;0.4;;;0.3;;
22308;SDS011;11322;50.858;-1.778;2023-04-07T13:45:34;1.15;;;0.7;;
22308;SDS011;11322;50.858;-1.778;2023-04-07T13:50:34;4.1;;;0.3;;
22308;SDS011;11322;50.858;-1.778;2023-04-07T13:55:34;1.8;;;0.6;;
22308;SDS011;11322;50.858;-1.778;2023-04-07T14:00:34;0.85;;;0.45;;
22308;SDS011;11322;50.858;-1.778;2023-04-07T14:05:34;0.75;;;0.7;;
22308;SDS011;11322;50.858;-1.778;2023-04-07T14:10:34;1.35;;;0.5;;
22308;SDS011;11322;50.858;-1.778;2023-04-07T14:15:34;0.3;;;0.3;;
22308;SDS011;11322;50.858;-1.778;2023-04-07T14:20:34;1.7;;;0.85;;
22308;SDS011;11322;50.858;-1.778;2023-04-07T14:25:34;0.85;;;0.55;;
22308;SDS011;11322;50.858;-1.778;2023-04-07T14:30:34;3.05;;;0.5;;
22308;SDS011;11322;50.858;-1.778;2023-04-07T14:35:35;1.35;;;0.7;;
22308;SDS011;11322;50.858;-1.778;2023-04-07T14:40:34;2.15;;;1.0;;
22308;SDS011;11322;50.858;-1.778;2023-04-07T14:45:34;3.05;;;1.0;;
22308;SDS011;11322;50.858;-1.778;2023-04-07T14:50:34;1.0;;;0.6;;
22308;SDS011;11322;50.858;-1.778;2023-04-07T14:55:34;1.5;;;0.6;;
22308;SDS011;11322;50.858;-1.778;2023-04-07T15:00:34;1.25;;;0.65;;
22308;SDS011;11322;50.858;-1.778;2023-04-07T15:05:34;3.95;;;1.1;;
22308;SDS011;11322;50.858;-1.778;2023-04-07T15:10:34;1.35;;;0.65;;
22308;SDS011;11322;50.858;-1.778;2023-04-07T15:15:34;4.95;;;1.0;;
22308;SDS011;11322;50.858;-1.778;2023-04-07T15:20:34;1.5;;;1.15;;
22308;SDS011;11322;50.858;-1.778;2023-04-07T15:25:34;0.85;;;0.7;;
22308;SDS011;11322;50.858;-1.778;2023-04-07T15:30:34;6.8;;;0.8;;
22308;SDS011;11322;50.858;-1.778;2023-04-07T15:35:34;6.7;;;0.9;;
22308;SDS011;11322;50.858;-1.778;2023-04-07T15:40:34;1.4;;;0.8;;
22308;SDS011;11322;50.858;-1.778;2023-04-07T15:45:34;2.55;;;1.0;;
22308;SDS011;11322;50.858;-1.778;2023-04-07T15:50:34;2.5;;;1.05;;
22308;SDS011;11322;50.858;-1.778;2023-04-07T15:55:34;0.5;;;0.5;;
22308;SDS011;11322;50.858;-1.778;2023-04-07T16:00:34;4.9;;;0.7;;
22308;SDS011;11322;50.858;-1.778;2023-04-07T16:05:34;2.85;;;0.55;;
22308;SDS011;11322;50.858;-1.778;2023-04-07T16:10:34;0.4;;;0.4;;
22308;SDS011;11322;50.858;-1.778;2023-04-07T16:15:34;1.25;;;0.4;;
22308;SDS011;11322;50.858;-1.778;2023-04-07T16:20:34;1.45;;;0.7;;
22308;SDS011;11322;50.858;-1.778;2023-04-07T16:25:34;0.35;;;0.2;;
22308;SDS011;11322;50.858;-1.778;2023-04-07T16:30:34;0.2;;;0.2;;
22308;SDS011;11322;50.858;-1.778;2023-04-07T16:35:34;0.35;;;0.35;;
22308;SDS011;11322;50.858;-1.778;2023-04-07T16:40:34;0.2;;;0.2;;
22308;SDS011;11322;50.858;-1.778;2023-04-07T16:45:34;1.4;;;1.0;;
22308;SDS011;11322;50.858;-1.778;2023-04-07T16:50:34;0.75;;;0.6;;
22308;SDS011;11322;50.858;-1.778;2023-04-07T16:55:34;2.35;;;0.75;;
22308;SDS011;11322;50.858;-1.778;2023-04-07T17:00:34;0.1;;;0.1;;
22308;SDS011;11322;50.858;-1.778;2023-04-07T17:05:34;0.1;;;0.1;;
22308;SDS011;11322;50.858;-1.778;2023-04-07T17:10:34;1.95;;;0.7;;
22308;SDS011;11322;50.858;-1.778;2023-04-07T17:15:34;2.0;;;0.6;;
22308;SDS011;11322;50.858;-1.778;2023-04-07T17:20:34;5.85;;;0.5;;
22308;SDS011;11322;50.858;-1.778;2023-04-07T17:25:34;2.25;;;0.6;;
22308;SDS011;11322;50.858;-1.778;2023-04-07T17:30:34;3.1;;;0.6;;
22308;SDS011;11322;50.858;-1.778;2023-04-07T17:35:34;3.15;;;1.0;;
22308;SDS011;11322;50.858;-1.778;2023-04-07T17:40:34;1.0;;;0.8;;
22308;SDS011;11322;50.858;-1.778;2023-04-07T17:45:34;0.2;;;0.2;;
22308;SDS011;11322;50.858;-1.778;2023-04-07T17:50:34;1.05;;;0.4;;
22308;SDS011;11322;50.858;-1.778;2023-04-07T17:55:34;0.5;;;0.5;;
22308;SDS011;11322;50.858;-1.778;2023-04-07T18:00:34;0.3;;;0.3;;
22308;SDS011;11322;50.858;-1.778;2023-04-07T18:05:34;1.05;;;0.3;;
22308;SDS011;11322;50.858;-1.778;2023-04-07T18:10:34;4.15;;;0.85;;
22308;SDS011;11322;50.858;-1.778;2023-04-07T18:15:34;0.65;;;0.65;;
22308;SDS011;11322;50.858;-1.778;2023-04-07T18:20:34;0.5;;;0.5;;
22308;SDS011;11322;50.858;-1.778;2023-04-07T18:25:34;1.5;;;0.9;;
22308;SDS011;11322;50.858;-1.778;2023-04-07T18:30:34;1.55;;;1.45;;
22308;SDS011;11322;50.858;-1.778;2023-04-07T18:35:34;3.5;;;1.35;;
22308;SDS011;11322;50.858;-1.778;2023-04-07T18:40:34;5.25;;;2.6;;
22308;SDS011;11322;50.858;-1.778;2023-04-07T18:45:34;5.05;;;3.0;;
22308;SDS011;11322;50.858;-1.778;2023-04-07T18:50:34;4.85;;;2.15;;
22308;SDS011;11322;50.858;-1.778;2023-04-07T18:55:34;5.75;;;2.3;;
22308;SDS011;11322;50.858;-1.778;2023-04-07T19:00:34;3.7;;;2.2;;
22308;SDS011;11322;50.858;-1.778;2023-04-07T19:05:35;4.55;;;2.75;;
22308;SDS011;11322;50.858;-1.778;2023-04-07T19:10:34;3.05;;;2.05;;
22308;SDS011;11322;50.858;-1.778;2023-04-07T19:15:34;3.4;;;1.9;;
22308;SDS011;11322;50.858;-1.778;2023-04-07T19:20:34;2.3;;;1.85;;
22308;SDS011;11322;50.858;-1.778;2023-04-07T19:25:34;5.95;;;3.4;;
22308;SDS011;11322;50.858;-1.778;2023-04-07T19:30:34;5.9;;;3.7;;
22308;SDS011;11322;50.858;-1.778;2023-04-07T19:35:34;6.65;;;4.5;;
22308;SDS011;11322;50.858;-1.778;2023-04-07T19:40:34;10.5;;;4.95;;
22308;SDS011;11322;50.858;-1.778;2023-04-07T19:45:34;9.8;;;4.5;;
22308;SDS011;11322;50.858;-1.778;2023-04-07T19:50:34;5.55;;;3.85;;
22308;SDS011;11322;50.858;-1.778;2023-04-07T19:55:34;9.25;;;4.2;;
22308;SDS011;11322;50.858;-1.778;2023-04-07T20:00:34;7.55;;;4.35;;
22308;SDS011;11322;50.858;-1.778;2023-04-07T20:05:34;8.05;;;5.0;;
22308;SDS011;11322;50.858;-1.778;2023-04-07T20:10:34;11.5;;;6.45;;
22308;SDS011;11322;50.858;-1.778;2023-04-07T20:15:34;10.15;;;6.4;;
22308;SDS011;11322;50.858;-1.778;2023-04-07T20:20:34;4.5;;;3.65;;
22308;SDS011;11322;50.858;-1.778;2023-04-07T20:25:35;5.55;;;3.5;;
22308;SDS011;11322;50.858;-1.778;2023-04-07T20:30:34;12.1;;;4.2;;
22308;SDS011;11322;50.858;-1.778;2023-04-07T20:35:34;5.95;;;4.5;;
22308;SDS011;11322;50.858;-1.778;2023-04-07T20:40:34;12.9;;;6.25;;
22308;SDS011;11322;50.858;-1.778;2023-04-07T20:45:34;7.1;;;4.0;;
22308;SDS011;11322;50.858;-1.778;2023-04-07T20:50:34;5.6;;;3.7;;
22308;SDS011;11322;50.858;-1.778;2023-04-07T20:55:34;8.0;;;4.0;;
22308;SDS011;11322;50.858;-1.778;2023-04-07T21:00:34;6.7;;;3.65;;
22308;SDS011;11322;50.858;-1.778;2023-04-07T21:05:34;7.0;;;3.45;;
22308;SDS011;11322;50.858;-1.778;2023-04-07T21:10:34;9.0;;;3.15;;
22308;SDS011;11322;50.858;-1.778;2023-04-07T21:15:34;38.0;;;9.15;;
22308;SDS011;11322;50.858;-1.778;2023-04-07T21:20:34;22.45;;;7.55;;
22308;SDS011;11322;50.858;-1.778;2023-04-07T21:25:35;14.1;;;3.85;;
22308;SDS011;11322;50.858;-1.778;2023-04-07T21:30:34;51.3;;;18.55;;
22308;SDS011;11322;50.858;-1.778;2023-04-07T21:35:34;14.55;;;5.75;;
22308;SDS011;11322;50.858;-1.778;2023-04-07T21:40:34;18.7;;;7.35;;
22308;SDS011;11322;50.858;-1.778;2023-04-07T21:45:34;28.65;;;12.3;;
22308;SDS011;11322;50.858;-1.778;2023-04-07T21:50:35;9.6;;;3.4;;
22308;SDS011;11322;50.858;-1.778;2023-04-07T21:55:34;11.95;;;5.65;;
22308;SDS011;11322;50.858;-1.778;2023-04-07T22:00:34;9.2;;;4.0;;
22308;SDS011;11322;50.858;-1.778;2023-04-07T22:05:34;3.2;;;1.6;;
22308;SDS011;11322;50.858;-1.778;2023-04-07T22:10:34;19.1;;;6.4;;
22308;SDS011;11322;50.858;-1.778;2023-04-07T22:15:34;10.95;;;5.2;;
22308;SDS011;11322;50.858;-1.778;2023-04-07T22:20:34;8.15;;;1.8;;
22308;SDS011;11322;50.858;-1.778;2023-04-07T22:25:34;17.95;;;9.0;;
22308;SDS011;11322;50.858;-1.778;2023-04-07T22:30:34;3.35;;;1.1;;
22308;SDS011;11322;50.858;-1.778;2023-04-07T22:35:34;3.7;;;1.55;;
22308;SDS011;11322;50.858;-1.778;2023-04-07T22:40:34;2.35;;;1.35;;
22308;SDS011;11322;50.858;-1.778;2023-04-07T22:45:34;1.9;;;1.65;;
22308;SDS011;11322;50.858;-1.778;2023-04-07T22:50:34;6.8;;;2.15;;
22308;SDS011;11322;50.858;-1.778;2023-04-07T22:55:34;19.0;;;9.45;;
22308;SDS011;11322;50.858;-1.778;2023-04-07T23:00:34;5.1;;;2.85;;
22308;SDS011;11322;50.858;-1.778;2023-04-07T23:05:34;11.95;;;7.05;;
22308;SDS011;11322;50.858;-1.778;2023-04-07T23:10:34;53.15;;;22.65;;
22308;SDS011;11322;50.858;-1.778;2023-04-07T23:15:34;32.55;;;14.75;;
22308;SDS011;11322;50.858;-1.778;2023-04-07T23:20:34;23.1;;;9.9;;
22308;SDS011;11322;50.858;-1.778;2023-04-07T23:25:34;1.2;;;1.15;;
22308;SDS011;11322;50.858;-1.778;2023-04-07T23:30:34;20.1;;;8.0;;
22308;SDS011;11322;50.858;-1.778;2023-04-07T23:35:34;4.5;;;2.2;;
22308;SDS011;11322;50.858;-1.778;2023-04-07T23:40:34;5.15;;;1.95;;
22308;SDS011;11322;50.858;-1.778;2023-04-07T23:45:34;23.1;;;9.6;;
22308;SDS011;11322;50.858;-1.778;2023-04-07T23:50:34;15.6;;;7.05;;
22308;SDS011;11322;50.858;-1.778;2023-04-07T23:55:34;6.7;;;3.1;;
